sensor_id;sensor_type;location;lat;lon;timestamp;P1;durP1;ratioP1;P2;durP2;ratioP2
3953;SDS011;1991;48.682;9.030;2023-06-14T00:02:25;5.43;;;3.60;;
3953;SDS011;1991;48.682;9.030;2023-06-14T00:04:50;5.78;;;3.67;;
3953;SDS011;1991;48.682;9.030;2023-06-14T00:07:17;7.43;;;3.42;;
3953;SDS011;1991;48.682;9.030;2023-06-14T00:09:43;7.07;;;3.95;;
3953;SDS011;1991;48.682;9.030;2023-06-14T00:12:09;5.45;;;3.83;;
3953;SDS011;1991;48.682;9.030;2023-06-14T00:14:34;3.85;;;3.00;;
3953;SDS011;1991;48.682;9.030;2023-06-14T00:17:00;4.40;;;4.00;;
3953;SDS011;1991;48.682;9.030;2023-06-14T00:19:26;8.63;;;3.80;;
3953;SDS011;1991;48.682;9.030;2023-06-14T00:21:51;8.70;;;3.60;;
3953;SDS011;1991;48.682;9.030;2023-06-14T00:24:17;5.95;;;3.13;;
3953;SDS011;1991;48.682;9.030;2023-06-14T00:26:43;4.93;;;3.50;;
3953;SDS011;1991;48.682;9.030;2023-06-14T00:29:09;4.15;;;3.75;;
3953;SDS011;1991;48.682;9.030;2023-06-14T00:31:34;4.20;;;3.55;;
3953;SDS011;1991;48.682;9.030;2023-06-14T00:34:00;5.95;;;4.07;;
3953;SDS011;1991;48.682;9.030;2023-06-14T00:36:25;7.93;;;3.90;;
3953;SDS011;1991;48.682;9.030;2023-06-14T00:38:51;4.25;;;3.38;;
3953;SDS011;1991;48.682;9.030;2023-06-14T00:41:16;5.88;;;3.78;;
3953;SDS011;1991;48.682;9.030;2023-06-14T00:43:42;6.57;;;3.42;;
3953;SDS011;1991;48.682;9.030;2023-06-14T00:46:07;6.47;;;3.88;;
3953;SDS011;1991;48.682;9.030;2023-06-14T00:48:33;4.72;;;3.28;;
3953;SDS011;1991;48.682;9.030;2023-06-14T00:51:00;4.18;;;3.58;;
3953;SDS011;1991;48.682;9.030;2023-06-14T00:53:28;6.95;;;3.63;;
3953;SDS011;1991;48.682;9.030;2023-06-14T00:55:56;6.43;;;3.55;;
3953;SDS011;1991;48.682;9.030;2023-06-14T00:58:21;4.00;;;3.58;;
3953;SDS011;1991;48.682;9.030;2023-06-14T01:00:48;6.50;;;3.78;;
3953;SDS011;1991;48.682;9.030;2023-06-14T01:03:13;4.13;;;3.38;;
3953;SDS011;1991;48.682;9.030;2023-06-14T01:05:47;6.40;;;3.20;;
3953;SDS011;1991;48.682;9.030;2023-06-14T01:08:47;6.03;;;3.63;;
3953;SDS011;1991;48.682;9.030;2023-06-14T01:11:12;6.78;;;4.43;;
3953;SDS011;1991;48.682;9.030;2023-06-14T01:13:46;4.90;;;3.83;;
3953;SDS011;1991;48.682;9.030;2023-06-14T01:16:13;7.80;;;3.50;;
3953;SDS011;1991;48.682;9.030;2023-06-14T01:18:40;8.25;;;4.40;;
3953;SDS011;1991;48.682;9.030;2023-06-14T01:21:19;6.82;;;3.95;;
3953;SDS011;1991;48.682;9.030;2023-06-14T01:23:49;4.88;;;3.45;;
3953;SDS011;1991;48.682;9.030;2023-06-14T01:26:18;8.82;;;3.90;;
3953;SDS011;1991;48.682;9.030;2023-06-14T01:28:45;4.43;;;3.42;;
3953;SDS011;1991;48.682;9.030;2023-06-14T01:31:15;4.75;;;4.07;;
3953;SDS011;1991;48.682;9.030;2023-06-14T01:33:44;4.85;;;3.70;;
3953;SDS011;1991;48.682;9.030;2023-06-14T01:36:11;4.70;;;3.53;;
3953;SDS011;1991;48.682;9.030;2023-06-14T01:38:37;6.05;;;4.10;;
3953;SDS011;1991;48.682;9.030;2023-06-14T01:41:03;5.20;;;3.63;;
3953;SDS011;1991;48.682;9.030;2023-06-14T01:43:29;4.95;;;3.67;;
3953;SDS011;1991;48.682;9.030;2023-06-14T01:45:56;5.07;;;3.65;;
3953;SDS011;1991;48.682;9.030;2023-06-14T01:48:22;5.60;;;3.90;;
3953;SDS011;1991;48.682;9.030;2023-06-14T01:50:49;5.88;;;3.58;;
3953;SDS011;1991;48.682;9.030;2023-06-14T01:53:15;7.63;;;3.85;;
3953;SDS011;1991;48.682;9.030;2023-06-14T01:55:41;4.97;;;3.65;;
3953;SDS011;1991;48.682;9.030;2023-06-14T01:58:09;5.65;;;3.60;;
3953;SDS011;1991;48.682;9.030;2023-06-14T02:00:35;5.60;;;4.10;;
3953;SDS011;1991;48.682;9.030;2023-06-14T02:03:00;3.88;;;3.42;;
3953;SDS011;1991;48.682;9.030;2023-06-14T02:05:29;4.72;;;4.25;;
3953;SDS011;1991;48.682;9.030;2023-06-14T02:07:55;7.05;;;3.72;;
3953;SDS011;1991;48.682;9.030;2023-06-14T02:10:20;5.15;;;3.78;;
3953;SDS011;1991;48.682;9.030;2023-06-14T02:12:46;3.95;;;3.45;;
3953;SDS011;1991;48.682;9.030;2023-06-14T02:15:12;5.10;;;3.60;;
3953;SDS011;1991;48.682;9.030;2023-06-14T02:17:42;4.78;;;3.65;;
3953;SDS011;1991;48.682;9.030;2023-06-14T02:20:08;4.45;;;3.78;;
3953;SDS011;1991;48.682;9.030;2023-06-14T02:22:34;5.07;;;3.78;;
3953;SDS011;1991;48.682;9.030;2023-06-14T02:25:00;5.45;;;3.63;;
3953;SDS011;1991;48.682;9.030;2023-06-14T02:27:25;5.18;;;3.75;;
3953;SDS011;1991;48.682;9.030;2023-06-14T02:29:51;5.20;;;3.72;;
3953;SDS011;1991;48.682;9.030;2023-06-14T02:32:16;3.90;;;3.50;;
3953;SDS011;1991;48.682;9.030;2023-06-14T02:34:42;4.65;;;3.67;;
3953;SDS011;1991;48.682;9.030;2023-06-14T02:37:08;6.75;;;3.90;;
3953;SDS011;1991;48.682;9.030;2023-06-14T02:39:34;5.20;;;3.97;;
3953;SDS011;1991;48.682;9.030;2023-06-14T02:42:00;5.43;;;3.80;;
3953;SDS011;1991;48.682;9.030;2023-06-14T02:44:25;4.47;;;3.85;;
3953;SDS011;1991;48.682;9.030;2023-06-14T02:46:54;6.88;;;4.10;;
3953;SDS011;1991;48.682;9.030;2023-06-14T02:49:21;3.78;;;3.38;;
3953;SDS011;1991;48.682;9.030;2023-06-14T02:51:47;4.55;;;3.72;;
3953;SDS011;1991;48.682;9.030;2023-06-14T02:54:13;5.45;;;4.07;;
3953;SDS011;1991;48.682;9.030;2023-06-14T02:56:39;3.80;;;3.38;;
3953;SDS011;1991;48.682;9.030;2023-06-14T02:59:05;4.88;;;3.80;;
3953;SDS011;1991;48.682;9.030;2023-06-14T03:01:32;6.43;;;3.75;;
3953;SDS011;1991;48.682;9.030;2023-06-14T03:04:01;4.80;;;3.90;;
3953;SDS011;1991;48.682;9.030;2023-06-14T03:06:28;6.85;;;4.30;;
3953;SDS011;1991;48.682;9.030;2023-06-14T03:08:58;5.45;;;4.47;;
3953;SDS011;1991;48.682;9.030;2023-06-14T03:11:25;5.90;;;4.13;;
3953;SDS011;1991;48.682;9.030;2023-06-14T03:13:51;6.47;;;4.53;;
3953;SDS011;1991;48.682;9.030;2023-06-14T03:16:17;6.15;;;4.25;;
3953;SDS011;1991;48.682;9.030;2023-06-14T03:18:47;4.70;;;4.00;;
3953;SDS011;1991;48.682;9.030;2023-06-14T03:21:17;4.65;;;4.20;;
3953;SDS011;1991;48.682;9.030;2023-06-14T03:23:43;4.68;;;3.83;;
3953;SDS011;1991;48.682;9.030;2023-06-14T03:26:09;4.63;;;3.85;;
3953;SDS011;1991;48.682;9.030;2023-06-14T03:28:39;6.82;;;4.13;;
3953;SDS011;1991;48.682;9.030;2023-06-14T03:31:05;7.82;;;4.60;;
3953;SDS011;1991;48.682;9.030;2023-06-14T03:33:31;5.28;;;4.30;;
3953;SDS011;1991;48.682;9.030;2023-06-14T03:35:56;5.13;;;4.25;;
3953;SDS011;1991;48.682;9.030;2023-06-14T03:38:22;4.90;;;3.95;;
3953;SDS011;1991;48.682;9.030;2023-06-14T03:40:48;5.75;;;4.10;;
3953;SDS011;1991;48.682;9.030;2023-06-14T03:43:13;5.05;;;4.10;;
3953;SDS011;1991;48.682;9.030;2023-06-14T03:45:39;5.72;;;4.07;;
3953;SDS011;1991;48.682;9.030;2023-06-14T03:48:05;5.65;;;4.30;;
3953;SDS011;1991;48.682;9.030;2023-06-14T03:50:31;4.50;;;4.10;;
3953;SDS011;1991;48.682;9.030;2023-06-14T03:52:57;5.88;;;4.18;;
3953;SDS011;1991;48.682;9.030;2023-06-14T03:55:23;6.07;;;4.43;;
3953;SDS011;1991;48.682;9.030;2023-06-14T03:57:51;7.97;;;4.68;;
3953;SDS011;1991;48.682;9.030;2023-06-14T04:00:17;4.97;;;4.07;;
3953;SDS011;1991;48.682;9.030;2023-06-14T04:02:43;4.90;;;3.83;;
3953;SDS011;1991;48.682;9.030;2023-06-14T04:05:09;5.78;;;4.40;;
3953;SDS011;1991;48.682;9.030;2023-06-14T04:07:35;5.50;;;4.43;;
3953;SDS011;1991;48.682;9.030;2023-06-14T04:10:09;6.45;;;4.38;;
3953;SDS011;1991;48.682;9.030;2023-06-14T04:12:38;4.47;;;4.03;;
3953;SDS011;1991;48.682;9.030;2023-06-14T04:15:05;6.30;;;4.90;;
3953;SDS011;1991;48.682;9.030;2023-06-14T04:17:31;6.68;;;4.85;;
3953;SDS011;1991;48.682;9.030;2023-06-14T04:20:00;7.13;;;4.78;;
3953;SDS011;1991;48.682;9.030;2023-06-14T04:22:27;6.10;;;4.50;;
3953;SDS011;1991;48.682;9.030;2023-06-14T04:24:56;5.53;;;4.38;;
3953;SDS011;1991;48.682;9.030;2023-06-14T04:27:25;8.23;;;4.80;;
3953;SDS011;1991;48.682;9.030;2023-06-14T04:29:52;8.57;;;4.70;;
3953;SDS011;1991;48.682;9.030;2023-06-14T04:32:23;7.43;;;5.07;;
3953;SDS011;1991;48.682;9.030;2023-06-14T04:34:55;4.60;;;4.20;;
3953;SDS011;1991;48.682;9.030;2023-06-14T04:37:21;6.60;;;4.18;;
3953;SDS011;1991;48.682;9.030;2023-06-14T04:39:47;5.68;;;4.43;;
3953;SDS011;1991;48.682;9.030;2023-06-14T04:42:13;5.85;;;4.75;;
3953;SDS011;1991;48.682;9.030;2023-06-14T04:44:40;5.72;;;4.35;;
3953;SDS011;1991;48.682;9.030;2023-06-14T04:47:10;6.78;;;4.95;;
3953;SDS011;1991;48.682;9.030;2023-06-14T04:49:37;5.28;;;4.30;;
3953;SDS011;1991;48.682;9.030;2023-06-14T04:52:03;8.65;;;4.57;;
3953;SDS011;1991;48.682;9.030;2023-06-14T04:54:29;7.10;;;4.50;;
3953;SDS011;1991;48.682;9.030;2023-06-14T04:56:56;8.13;;;4.82;;
3953;SDS011;1991;48.682;9.030;2023-06-14T04:59:22;6.28;;;4.93;;
3953;SDS011;1991;48.682;9.030;2023-06-14T05:01:48;7.47;;;4.93;;
3953;SDS011;1991;48.682;9.030;2023-06-14T05:04:15;8.85;;;5.03;;
3953;SDS011;1991;48.682;9.030;2023-06-14T05:06:41;7.85;;;5.05;;
3953;SDS011;1991;48.682;9.030;2023-06-14T05:09:10;7.50;;;4.88;;
3953;SDS011;1991;48.682;9.030;2023-06-14T05:11:36;7.32;;;4.70;;
3953;SDS011;1991;48.682;9.030;2023-06-14T05:14:01;7.07;;;4.45;;
3953;SDS011;1991;48.682;9.030;2023-06-14T05:16:27;8.05;;;4.97;;
3953;SDS011;1991;48.682;9.030;2023-06-14T05:18:54;8.68;;;4.45;;
3953;SDS011;1991;48.682;9.030;2023-06-14T05:21:20;5.13;;;4.60;;
3953;SDS011;1991;48.682;9.030;2023-06-14T05:23:45;5.20;;;4.25;;
3953;SDS011;1991;48.682;9.030;2023-06-14T05:26:11;7.70;;;4.35;;
3953;SDS011;1991;48.682;9.030;2023-06-14T05:28:37;8.00;;;4.88;;
3953;SDS011;1991;48.682;9.030;2023-06-14T05:31:02;9.00;;;4.75;;
3953;SDS011;1991;48.682;9.030;2023-06-14T05:33:28;8.88;;;4.93;;
3953;SDS011;1991;48.682;9.030;2023-06-14T05:35:53;7.50;;;4.95;;
3953;SDS011;1991;48.682;9.030;2023-06-14T05:38:20;7.30;;;5.20;;
3953;SDS011;1991;48.682;9.030;2023-06-14T05:40:45;5.80;;;4.85;;
3953;SDS011;1991;48.682;9.030;2023-06-14T05:43:11;9.07;;;5.00;;
3953;SDS011;1991;48.682;9.030;2023-06-14T05:45:37;5.95;;;4.40;;
3953;SDS011;1991;48.682;9.030;2023-06-14T05:48:02;9.98;;;4.88;;
3953;SDS011;1991;48.682;9.030;2023-06-14T05:50:28;7.97;;;3.88;;
3953;SDS011;1991;48.682;9.030;2023-06-14T05:52:53;5.70;;;3.60;;
3953;SDS011;1991;48.682;9.030;2023-06-14T05:55:19;4.63;;;3.47;;
3953;SDS011;1991;48.682;9.030;2023-06-14T05:57:45;5.45;;;3.85;;
3953;SDS011;1991;48.682;9.030;2023-06-14T06:00:12;7.80;;;3.60;;
3953;SDS011;1991;48.682;9.030;2023-06-14T06:02:41;4.93;;;3.33;;
3953;SDS011;1991;48.682;9.030;2023-06-14T06:05:08;5.45;;;3.40;;
3953;SDS011;1991;48.682;9.030;2023-06-14T06:07:34;4.75;;;3.20;;
3953;SDS011;1991;48.682;9.030;2023-06-14T06:10:00;5.47;;;3.35;;
3953;SDS011;1991;48.682;9.030;2023-06-14T06:12:26;5.20;;;3.38;;
3953;SDS011;1991;48.682;9.030;2023-06-14T06:14:51;7.25;;;3.35;;
3953;SDS011;1991;48.682;9.030;2023-06-14T06:17:17;5.13;;;3.40;;
3953;SDS011;1991;48.682;9.030;2023-06-14T06:19:43;3.55;;;3.10;;
3953;SDS011;1991;48.682;9.030;2023-06-14T06:22:09;5.97;;;3.65;;
3953;SDS011;1991;48.682;9.030;2023-06-14T06:24:34;4.97;;;3.42;;
3953;SDS011;1991;48.682;9.030;2023-06-14T06:27:00;5.53;;;3.17;;
3953;SDS011;1991;48.682;9.030;2023-06-14T06:29:25;5.30;;;3.38;;
3953;SDS011;1991;48.682;9.030;2023-06-14T06:31:51;5.07;;;3.60;;
3953;SDS011;1991;48.682;9.030;2023-06-14T06:34:17;5.50;;;3.50;;
3953;SDS011;1991;48.682;9.030;2023-06-14T06:36:42;5.95;;;3.58;;
3953;SDS011;1991;48.682;9.030;2023-06-14T06:39:08;7.13;;;3.53;;
3953;SDS011;1991;48.682;9.030;2023-06-14T06:41:39;6.13;;;3.30;;
3953;SDS011;1991;48.682;9.030;2023-06-14T06:44:05;5.05;;;3.35;;
3953;SDS011;1991;48.682;9.030;2023-06-14T06:46:32;4.35;;;3.30;;
3953;SDS011;1991;48.682;9.030;2023-06-14T06:48:58;3.85;;;3.10;;
3953;SDS011;1991;48.682;9.030;2023-06-14T06:51:24;5.70;;;3.20;;
3953;SDS011;1991;48.682;9.030;2023-06-14T06:53:53;4.95;;;3.58;;
3953;SDS011;1991;48.682;9.030;2023-06-14T06:56:19;11.48;;;3.67;;
3953;SDS011;1991;48.682;9.030;2023-06-14T06:58:44;4.22;;;3.00;;
3953;SDS011;1991;48.682;9.030;2023-06-14T07:01:10;6.95;;;3.60;;
3953;SDS011;1991;48.682;9.030;2023-06-14T07:03:36;3.67;;;3.13;;
3953;SDS011;1991;48.682;9.030;2023-06-14T07:06:02;4.18;;;3.13;;
3953;SDS011;1991;48.682;9.030;2023-06-14T07:08:28;3.25;;;2.85;;
3953;SDS011;1991;48.682;9.030;2023-06-14T07:10:54;4.75;;;3.47;;
3953;SDS011;1991;48.682;9.030;2023-06-14T07:13:20;4.15;;;3.03;;
3953;SDS011;1991;48.682;9.030;2023-06-14T07:15:46;4.05;;;3.25;;
3953;SDS011;1991;48.682;9.030;2023-06-14T07:18:12;4.43;;;3.50;;
3953;SDS011;1991;48.682;9.030;2023-06-14T07:20:37;8.43;;;3.30;;
3953;SDS011;1991;48.682;9.030;2023-06-14T07:23:03;4.53;;;3.42;;
3953;SDS011;1991;48.682;9.030;2023-06-14T07:25:30;4.80;;;3.40;;
3953;SDS011;1991;48.682;9.030;2023-06-14T07:27:56;4.53;;;3.35;;
3953;SDS011;1991;48.682;9.030;2023-06-14T07:30:22;4.75;;;3.30;;
3953;SDS011;1991;48.682;9.030;2023-06-14T07:32:51;4.78;;;3.40;;
3953;SDS011;1991;48.682;9.030;2023-06-14T07:35:17;7.07;;;3.38;;
3953;SDS011;1991;48.682;9.030;2023-06-14T07:37:43;4.45;;;3.08;;
3953;SDS011;1991;48.682;9.030;2023-06-14T07:40:09;5.22;;;3.10;;
3953;SDS011;1991;48.682;9.030;2023-06-14T07:42:35;4.95;;;3.60;;
3953;SDS011;1991;48.682;9.030;2023-06-14T07:45:01;7.03;;;3.53;;
3953;SDS011;1991;48.682;9.030;2023-06-14T07:47:28;5.32;;;3.47;;
3953;SDS011;1991;48.682;9.030;2023-06-14T07:49:53;3.80;;;3.28;;
3953;SDS011;1991;48.682;9.030;2023-06-14T07:52:19;4.07;;;3.60;;
3953;SDS011;1991;48.682;9.030;2023-06-14T07:54:45;7.22;;;3.67;;
3953;SDS011;1991;48.682;9.030;2023-06-14T07:57:10;6.30;;;3.58;;
3953;SDS011;1991;48.682;9.030;2023-06-14T07:59:36;5.38;;;3.42;;
3953;SDS011;1991;48.682;9.030;2023-06-14T08:02:01;5.15;;;3.20;;
3953;SDS011;1991;48.682;9.030;2023-06-14T08:04:27;4.75;;;3.50;;
3953;SDS011;1991;48.682;9.030;2023-06-14T08:06:53;6.32;;;3.47;;
3953;SDS011;1991;48.682;9.030;2023-06-14T08:09:18;10.23;;;4.00;;
3953;SDS011;1991;48.682;9.030;2023-06-14T08:11:44;9.45;;;3.70;;
3953;SDS011;1991;48.682;9.030;2023-06-14T08:14:10;7.45;;;3.80;;
3953;SDS011;1991;48.682;9.030;2023-06-14T08:16:36;4.63;;;3.88;;
3953;SDS011;1991;48.682;9.030;2023-06-14T08:19:02;4.47;;;3.75;;
3953;SDS011;1991;48.682;9.030;2023-06-14T08:21:28;8.65;;;3.63;;
3953;SDS011;1991;48.682;9.030;2023-06-14T08:23:54;6.20;;;3.70;;
3953;SDS011;1991;48.682;9.030;2023-06-14T08:26:20;7.05;;;4.05;;
3953;SDS011;1991;48.682;9.030;2023-06-14T08:28:46;6.43;;;3.78;;
3953;SDS011;1991;48.682;9.030;2023-06-14T08:31:12;6.13;;;4.63;;
3953;SDS011;1991;48.682;9.030;2023-06-14T08:33:38;5.72;;;3.47;;
3953;SDS011;1991;48.682;9.030;2023-06-14T08:36:07;12.05;;;3.90;;
3953;SDS011;1991;48.682;9.030;2023-06-14T08:38:33;8.55;;;3.80;;
3953;SDS011;1991;48.682;9.030;2023-06-14T08:40:59;5.32;;;3.40;;
3953;SDS011;1991;48.682;9.030;2023-06-14T08:43:27;5.40;;;3.72;;
3953;SDS011;1991;48.682;9.030;2023-06-14T08:45:53;7.15;;;3.88;;
3953;SDS011;1991;48.682;9.030;2023-06-14T08:48:24;6.60;;;3.67;;
3953;SDS011;1991;48.682;9.030;2023-06-14T08:50:51;8.15;;;3.88;;
3953;SDS011;1991;48.682;9.030;2023-06-14T08:53:27;6.32;;;3.72;;
3953;SDS011;1991;48.682;9.030;2023-06-14T08:55:57;7.95;;;3.90;;
3953;SDS011;1991;48.682;9.030;2023-06-14T08:58:29;6.00;;;3.67;;
3953;SDS011;1991;48.682;9.030;2023-06-14T09:00:59;6.63;;;3.97;;
3953;SDS011;1991;48.682;9.030;2023-06-14T09:03:27;6.43;;;3.95;;
3953;SDS011;1991;48.682;9.030;2023-06-14T09:05:59;7.13;;;3.80;;
3953;SDS011;1991;48.682;9.030;2023-06-14T09:08:25;5.05;;;3.58;;
3953;SDS011;1991;48.682;9.030;2023-06-14T09:10:55;3.83;;;3.50;;
3953;SDS011;1991;48.682;9.030;2023-06-14T09:13:21;4.38;;;3.95;;
3953;SDS011;1991;48.682;9.030;2023-06-14T09:15:47;5.28;;;3.95;;
3953;SDS011;1991;48.682;9.030;2023-06-14T09:18:12;8.18;;;4.00;;
3953;SDS011;1991;48.682;9.030;2023-06-14T09:20:38;5.50;;;3.70;;
3953;SDS011;1991;48.682;9.030;2023-06-14T09:23:04;8.65;;;4.20;;
3953;SDS011;1991;48.682;9.030;2023-06-14T09:25:30;7.00;;;3.47;;
3953;SDS011;1991;48.682;9.030;2023-06-14T09:27:56;6.78;;;4.18;;
3953;SDS011;1991;48.682;9.030;2023-06-14T09:30:21;4.72;;;3.67;;
3953;SDS011;1991;48.682;9.030;2023-06-14T09:32:47;6.72;;;4.00;;
3953;SDS011;1991;48.682;9.030;2023-06-14T09:35:12;4.80;;;3.67;;
3953;SDS011;1991;48.682;9.030;2023-06-14T09:37:42;5.15;;;4.28;;
3953;SDS011;1991;48.682;9.030;2023-06-14T09:40:09;6.65;;;4.22;;
3953;SDS011;1991;48.682;9.030;2023-06-14T09:42:35;6.65;;;4.15;;
3953;SDS011;1991;48.682;9.030;2023-06-14T09:45:02;6.45;;;3.90;;
3953;SDS011;1991;48.682;9.030;2023-06-14T09:47:28;9.35;;;4.25;;
3953;SDS011;1991;48.682;9.030;2023-06-14T09:49:54;6.18;;;3.22;;
3953;SDS011;1991;48.682;9.030;2023-06-14T09:52:20;7.88;;;3.92;;
3953;SDS011;1991;48.682;9.030;2023-06-14T09:54:48;6.30;;;3.95;;
3953;SDS011;1991;48.682;9.030;2023-06-14T09:57:17;8.77;;;4.22;;
3953;SDS011;1991;48.682;9.030;2023-06-14T09:59:47;6.00;;;3.53;;
3953;SDS011;1991;48.682;9.030;2023-06-14T10:02:24;8.13;;;3.40;;
3953;SDS011;1991;48.682;9.030;2023-06-14T10:05:12;4.20;;;3.00;;
3953;SDS011;1991;48.682;9.030;2023-06-14T10:07:41;6.97;;;3.65;;
3953;SDS011;1991;48.682;9.030;2023-06-14T10:10:13;7.38;;;3.58;;
3953;SDS011;1991;48.682;9.030;2023-06-14T10:12:39;5.15;;;3.53;;
3953;SDS011;1991;48.682;9.030;2023-06-14T10:15:05;6.97;;;3.83;;
3953;SDS011;1991;48.682;9.030;2023-06-14T10:17:42;5.35;;;3.60;;
3953;SDS011;1991;48.682;9.030;2023-06-14T10:22:49;6.50;;;3.50;;
3953;SDS011;1991;48.682;9.030;2023-06-14T10:25:27;5.93;;;3.55;;
3953;SDS011;1991;48.682;9.030;2023-06-14T10:30:38;5.50;;;3.85;;
3953;SDS011;1991;48.682;9.030;2023-06-14T10:33:07;8.68;;;3.80;;
3953;SDS011;1991;48.682;9.030;2023-06-14T10:35:33;5.95;;;3.92;;
3953;SDS011;1991;48.682;9.030;2023-06-14T10:38:09;6.28;;;4.20;;
3953;SDS011;1991;48.682;9.030;2023-06-14T10:40:36;4.10;;;3.80;;
3953;SDS011;1991;48.682;9.030;2023-06-14T10:43:20;5.82;;;3.70;;
3953;SDS011;1991;48.682;9.030;2023-06-14T10:46:49;5.32;;;4.00;;
3953;SDS011;1991;48.682;9.030;2023-06-14T10:48:46;4.18;;;3.50;;
3953;SDS011;1991;48.682;9.030;2023-06-14T10:51:21;5.07;;;3.60;;
3953;SDS011;1991;48.682;9.030;2023-06-14T10:53:47;10.07;;;4.10;;
3953;SDS011;1991;48.682;9.030;2023-06-14T10:56:23;5.22;;;3.67;;
3953;SDS011;1991;48.682;9.030;2023-06-14T10:58:51;6.35;;;3.92;;
3953;SDS011;1991;48.682;9.030;2023-06-14T11:01:23;6.70;;;3.90;;
3953;SDS011;1991;48.682;9.030;2023-06-14T11:04:12;6.38;;;3.67;;
3953;SDS011;1991;48.682;9.030;2023-06-14T11:06:59;6.38;;;3.97;;
3953;SDS011;1991;48.682;9.030;2023-06-14T11:12:19;10.35;;;4.30;;
3953;SDS011;1991;48.682;9.030;2023-06-14T11:14:46;6.75;;;3.75;;
3953;SDS011;1991;48.682;9.030;2023-06-14T11:17:12;7.47;;;4.32;;
3953;SDS011;1991;48.682;9.030;2023-06-14T11:19:38;6.40;;;3.72;;
3953;SDS011;1991;48.682;9.030;2023-06-14T11:22:04;5.55;;;3.70;;
3953;SDS011;1991;48.682;9.030;2023-06-14T11:24:31;6.32;;;4.03;;
3953;SDS011;1991;48.682;9.030;2023-06-14T11:26:57;4.25;;;3.63;;
3953;SDS011;1991;48.682;9.030;2023-06-14T11:29:23;4.05;;;3.65;;
3953;SDS011;1991;48.682;9.030;2023-06-14T11:31:49;5.95;;;3.78;;
3953;SDS011;1991;48.682;9.030;2023-06-14T11:34:15;5.97;;;3.67;;
3953;SDS011;1991;48.682;9.030;2023-06-14T11:36:42;5.72;;;3.90;;
3953;SDS011;1991;48.682;9.030;2023-06-14T11:39:08;5.32;;;3.90;;
3953;SDS011;1991;48.682;9.030;2023-06-14T11:41:37;4.68;;;3.83;;
3953;SDS011;1991;48.682;9.030;2023-06-14T11:44:04;7.85;;;3.78;;
3953;SDS011;1991;48.682;9.030;2023-06-14T11:46:31;6.05;;;3.88;;
3953;SDS011;1991;48.682;9.030;2023-06-14T11:48:56;6.05;;;4.15;;
3953;SDS011;1991;48.682;9.030;2023-06-14T11:51:23;6.78;;;3.70;;
3953;SDS011;1991;48.682;9.030;2023-06-14T11:53:48;8.30;;;3.90;;
3953;SDS011;1991;48.682;9.030;2023-06-14T11:56:14;6.75;;;3.97;;
3953;SDS011;1991;48.682;9.030;2023-06-14T11:58:42;6.25;;;3.95;;
3953;SDS011;1991;48.682;9.030;2023-06-14T12:01:08;7.30;;;3.88;;
3953;SDS011;1991;48.682;9.030;2023-06-14T12:03:34;6.72;;;4.07;;
3953;SDS011;1991;48.682;9.030;2023-06-14T12:06:07;5.00;;;3.78;;
3953;SDS011;1991;48.682;9.030;2023-06-14T12:08:34;7.50;;;3.75;;
3953;SDS011;1991;48.682;9.030;2023-06-14T12:11:03;10.43;;;3.78;;
3953;SDS011;1991;48.682;9.030;2023-06-14T12:13:30;3.78;;;3.42;;
3953;SDS011;1991;48.682;9.030;2023-06-14T12:15:56;6.43;;;3.55;;
3953;SDS011;1991;48.682;9.030;2023-06-14T12:18:31;8.85;;;4.07;;
3953;SDS011;1991;48.682;9.030;2023-06-14T12:20:59;3.95;;;3.50;;
3953;SDS011;1991;48.682;9.030;2023-06-14T12:23:38;6.53;;;3.35;;
3953;SDS011;1991;48.682;9.030;2023-06-14T12:26:15;5.93;;;3.65;;
3953;SDS011;1991;48.682;9.030;2023-06-14T12:28:42;8.48;;;3.63;;
3953;SDS011;1991;48.682;9.030;2023-06-14T12:31:09;4.55;;;3.50;;
3953;SDS011;1991;48.682;9.030;2023-06-14T12:33:37;6.07;;;3.72;;
3953;SDS011;1991;48.682;9.030;2023-06-14T12:36:03;4.78;;;3.42;;
3953;SDS011;1991;48.682;9.030;2023-06-14T12:38:30;5.18;;;3.42;;
3953;SDS011;1991;48.682;9.030;2023-06-14T12:40:57;7.15;;;3.78;;
3953;SDS011;1991;48.682;9.030;2023-06-14T12:43:23;6.05;;;3.75;;
3953;SDS011;1991;48.682;9.030;2023-06-14T12:45:48;11.40;;;4.30;;
3953;SDS011;1991;48.682;9.030;2023-06-14T12:48:14;4.45;;;3.28;;
3953;SDS011;1991;48.682;9.030;2023-06-14T12:50:40;6.63;;;3.38;;
3953;SDS011;1991;48.682;9.030;2023-06-14T12:53:06;7.57;;;3.45;;
3953;SDS011;1991;48.682;9.030;2023-06-14T12:55:32;4.00;;;3.40;;
3953;SDS011;1991;48.682;9.030;2023-06-14T12:57:57;5.78;;;3.20;;
3953;SDS011;1991;48.682;9.030;2023-06-14T13:00:23;7.15;;;3.53;;
3953;SDS011;1991;48.682;9.030;2023-06-14T13:02:51;6.63;;;3.80;;
3953;SDS011;1991;48.682;9.030;2023-06-14T13:05:17;5.50;;;3.63;;
3953;SDS011;1991;48.682;9.030;2023-06-14T13:07:43;5.05;;;3.45;;
3953;SDS011;1991;48.682;9.030;2023-06-14T13:10:09;8.32;;;3.60;;
3953;SDS011;1991;48.682;9.030;2023-06-14T13:12:35;4.35;;;3.95;;
3953;SDS011;1991;48.682;9.030;2023-06-14T13:15:00;5.10;;;3.40;;
3953;SDS011;1991;48.682;9.030;2023-06-14T13:17:26;3.92;;;3.17;;
3953;SDS011;1991;48.682;9.030;2023-06-14T13:19:52;6.28;;;3.35;;
3953;SDS011;1991;48.682;9.030;2023-06-14T13:22:18;7.95;;;3.53;;
3953;SDS011;1991;48.682;9.030;2023-06-14T13:24:44;3.45;;;3.15;;
3953;SDS011;1991;48.682;9.030;2023-06-14T13:27:09;9.13;;;3.90;;
3953;SDS011;1991;48.682;9.030;2023-06-14T13:29:35;5.40;;;3.75;;
3953;SDS011;1991;48.682;9.030;2023-06-14T13:32:02;4.75;;;3.72;;
3953;SDS011;1991;48.682;9.030;2023-06-14T13:34:28;5.85;;;3.92;;
3953;SDS011;1991;48.682;9.030;2023-06-14T13:36:53;5.85;;;3.58;;
3953;SDS011;1991;48.682;9.030;2023-06-14T13:39:19;6.15;;;3.20;;
3953;SDS011;1991;48.682;9.030;2023-06-14T13:41:44;7.00;;;3.55;;
3953;SDS011;1991;48.682;9.030;2023-06-14T13:44:10;6.68;;;3.30;;
3953;SDS011;1991;48.682;9.030;2023-06-14T13:46:40;6.90;;;3.63;;
3953;SDS011;1991;48.682;9.030;2023-06-14T13:49:07;3.80;;;3.50;;
3953;SDS011;1991;48.682;9.030;2023-06-14T13:51:33;6.80;;;3.83;;
3953;SDS011;1991;48.682;9.030;2023-06-14T13:54:00;8.63;;;3.47;;
3953;SDS011;1991;48.682;9.030;2023-06-14T13:56:26;5.50;;;3.72;;
3953;SDS011;1991;48.682;9.030;2023-06-14T13:58:51;8.73;;;3.40;;
3953;SDS011;1991;48.682;9.030;2023-06-14T14:01:17;7.25;;;3.53;;
3953;SDS011;1991;48.682;9.030;2023-06-14T14:03:44;6.57;;;3.53;;
3953;SDS011;1991;48.682;9.030;2023-06-14T14:06:11;5.50;;;3.47;;
3953;SDS011;1991;48.682;9.030;2023-06-14T14:08:37;7.32;;;3.50;;
3953;SDS011;1991;48.682;9.030;2023-06-14T14:11:04;7.43;;;3.83;;
3953;SDS011;1991;48.682;9.030;2023-06-14T14:13:30;5.68;;;3.70;;
3953;SDS011;1991;48.682;9.030;2023-06-14T14:15:57;5.78;;;3.30;;
3953;SDS011;1991;48.682;9.030;2023-06-14T14:18:22;7.20;;;3.65;;
3953;SDS011;1991;48.682;9.030;2023-06-14T14:20:48;6.70;;;3.55;;
3953;SDS011;1991;48.682;9.030;2023-06-14T14:23:14;4.10;;;3.67;;
3953;SDS011;1991;48.682;9.030;2023-06-14T14:25:39;3.60;;;3.30;;
3953;SDS011;1991;48.682;9.030;2023-06-14T14:28:05;4.95;;;3.50;;
3953;SDS011;1991;48.682;9.030;2023-06-14T14:30:31;6.45;;;3.25;;
3953;SDS011;1991;48.682;9.030;2023-06-14T14:32:56;6.10;;;3.38;;
3953;SDS011;1991;48.682;9.030;2023-06-14T14:35:22;3.22;;;2.70;;
3953;SDS011;1991;48.682;9.030;2023-06-14T14:37:49;4.90;;;3.40;;
3953;SDS011;1991;48.682;9.030;2023-06-14T14:40:14;5.60;;;3.50;;
3953;SDS011;1991;48.682;9.030;2023-06-14T14:42:40;5.35;;;3.33;;
3953;SDS011;1991;48.682;9.030;2023-06-14T14:45:06;9.02;;;3.38;;
3953;SDS011;1991;48.682;9.030;2023-06-14T14:47:32;7.22;;;3.50;;
3953;SDS011;1991;48.682;9.030;2023-06-14T14:49:57;5.53;;;3.38;;
3953;SDS011;1991;48.682;9.030;2023-06-14T14:52:23;6.00;;;3.35;;
3953;SDS011;1991;48.682;9.030;2023-06-14T14:54:49;5.78;;;3.70;;
3953;SDS011;1991;48.682;9.030;2023-06-14T14:57:15;3.85;;;3.45;;
3953;SDS011;1991;48.682;9.030;2023-06-14T14:59:41;4.47;;;3.40;;
3953;SDS011;1991;48.682;9.030;2023-06-14T15:02:06;7.60;;;3.33;;
3953;SDS011;1991;48.682;9.030;2023-06-14T15:04:32;4.38;;;3.25;;
3953;SDS011;1991;48.682;9.030;2023-06-14T15:06:57;8.60;;;3.30;;
3953;SDS011;1991;48.682;9.030;2023-06-14T15:09:23;8.25;;;3.80;;
3953;SDS011;1991;48.682;9.030;2023-06-14T15:11:48;7.47;;;3.42;;
3953;SDS011;1991;48.682;9.030;2023-06-14T15:14:14;5.90;;;3.17;;
3953;SDS011;1991;48.682;9.030;2023-06-14T15:16:40;4.50;;;3.17;;
3953;SDS011;1991;48.682;9.030;2023-06-14T15:19:06;4.53;;;3.17;;
3953;SDS011;1991;48.682;9.030;2023-06-14T15:21:31;4.43;;;3.60;;
3953;SDS011;1991;48.682;9.030;2023-06-14T15:23:57;4.18;;;3.40;;